createdAt,value
2018-09-11T06:55:27.405Z,26.26
2018-09-11T06:56:08.196Z,26.47
2018-09-11T06:56:48.981Z,26.58
2018-09-11T06:57:29.750Z,26.6
2018-09-11T06:58:10.577Z,26.62
2018-09-11T06:58:51.444Z,26.62
2018-09-11T06:59:32.242Z,26.48
2018-09-11T07:00:12.963Z,26.47
2018-09-11T07:00:53.702Z,26.39
2018-09-11T07:01:34.411Z,26.36
2018-09-11T07:02:15.218Z,26.35
2018-09-11T07:02:56.045Z,26.45
2018-09-11T07:03:36.855Z,26.51
2018-09-11T07:04:17.635Z,26.48
2018-09-11T07:04:58.336Z,26.4
2018-09-11T07:05:39.114Z,26.47
2018-09-11T07:06:19.930Z,26.47
2018-09-11T07:07:00.656Z,26.48
2018-09-11T07:07:41.342Z,26.35
2018-09-11T07:08:22.102Z,26.37
2018-09-11T07:09:02.855Z,26.43
2018-09-11T07:09:43.668Z,26.36
2018-09-11T07:10:24.472Z,26.33
2018-09-11T07:11:05.254Z,26.36
2018-09-11T07:11:45.954Z,26.33
2018-09-11T07:12:26.664Z,26.4
2018-09-11T07:13:07.437Z,26.35
2018-09-11T07:13:48.309Z,26.32
2018-09-11T07:14:28.992Z,26.48
2018-09-11T07:15:09.769Z,26.48
2018-09-11T07:15:50.643Z,26.48
2018-09-11T07:16:31.419Z,26.4
2018-09-11T07:17:12.212Z,26.45
2018-09-11T07:17:52.973Z,26.45
2018-09-11T07:18:33.708Z,26.51
2018-09-11T07:19:14.493Z,26.47
2018-09-11T07:19:55.341Z,26.51
2018-09-11T07:20:36.067Z,26.51
2018-09-11T07:21:16.867Z,26.54
2018-09-11T07:21:57.610Z,26.58
2018-09-11T07:22:38.326Z,26.62
2018-09-11T07:23:19.075Z,26.6
2018-09-11T07:23:59.851Z,26.67
2018-09-11T07:24:40.576Z,26.67
2018-09-11T07:25:21.300Z,26.63
2018-09-11T07:26:02.095Z,26.8
2018-09-11T07:26:42.876Z,26.84
2018-09-11T07:27:23.636Z,26.88
2018-09-11T07:28:04.403Z,26.88
2018-09-11T07:28:45.216Z,26.92
2018-09-11T07:29:26.028Z,26.92
2018-09-11T07:30:06.862Z,27.02
2018-09-11T07:30:47.591Z,26.91
2018-09-11T07:31:28.370Z,27.04
2018-09-11T07:32:09.154Z,26.99
2018-09-11T07:32:49.868Z,27.03
2018-09-11T07:33:30.575Z,27.02
2018-09-11T07:34:11.355Z,27.02
2018-09-11T07:34:52.122Z,27.04
2018-09-11T07:35:32.991Z,27.12
2018-09-11T07:36:13.754Z,27.1
2018-09-11T07:36:54.571Z,27.12
2018-09-11T07:37:35.286Z,27.12
2018-09-11T07:38:16.018Z,27.04
2018-09-11T07:38:56.759Z,27.18
2018-09-11T07:39:37.534Z,27.03
2018-09-11T07:40:18.326Z,27.06
2018-09-11T07:40:59.040Z,27.19
2018-09-11T07:41:39.824Z,27.12
2018-09-11T07:42:20.631Z,27.18
2018-09-11T07:43:01.447Z,27.14
2018-09-11T07:43:42.234Z,27.21
2018-09-11T07:44:22.971Z,27.19
2018-09-11T07:45:03.701Z,27.19
2018-09-11T07:45:44.473Z,27.18
2018-09-11T07:46:25.237Z,27.19
2018-09-11T07:47:06.045Z,27.24
2018-09-11T07:47:46.851Z,27.22
2018-09-11T07:48:27.581Z,27.18
2018-09-11T07:49:08.432Z,27.14
2018-09-11T07:49:49.205Z,27.22
2018-09-11T07:50:29.922Z,27.22
2018-09-11T07:51:10.658Z,27.21
2018-09-11T07:51:51.396Z,27.18
2018-09-11T07:52:32.272Z,27.13
2018-09-11T07:53:12.985Z,27.13
2018-09-11T07:53:53.807Z,27.14
2018-09-11T07:54:34.549Z,27.13
2018-09-11T07:55:15.302Z,27.18
2018-09-11T07:55:56.074Z,27.17
2018-09-11T07:56:36.840Z,27.13
2018-09-11T07:57:17.642Z,27.18
2018-09-11T07:57:58.432Z,27.12
2018-09-11T07:58:39.072Z,27.1
2018-09-11T07:59:19.894Z,27.13
2018-09-11T08:00:00.752Z,27.07
2018-09-11T08:00:41.514Z,27.02
2018-09-11T08:01:22.231Z,27.12
2018-09-11T08:02:03.064Z,27.06
2018-09-11T08:02:43.887Z,27.12
2018-09-11T08:03:24.658Z,27.12
2018-09-11T08:04:05.394Z,27.06
2018-09-11T08:04:46.104Z,27.1
2018-09-11T08:05:26.934Z,27.06
2018-09-11T08:06:08.411Z,27.09
2018-09-11T08:06:49.165Z,27.09
2018-09-11T08:07:29.948Z,27.03
2018-09-11T08:08:10.775Z,27.09
2018-09-11T08:08:51.597Z,27.07
2018-09-11T08:09:32.348Z,27.04
2018-09-11T08:10:13.069Z,27.17
2018-09-11T08:10:53.819Z,27.04
2018-09-11T08:11:34.570Z,27.07
2018-09-11T08:12:15.361Z,27.07
2018-09-11T08:12:56.215Z,27.13
2018-09-11T08:13:37.001Z,27.04
2018-09-11T08:14:17.729Z,27.07
2018-09-11T08:14:58.477Z,27
2018-09-11T08:15:39.324Z,27.19
2018-09-11T08:16:20.114Z,27.1
2018-09-11T08:17:00.863Z,27.07
2018-09-11T08:17:41.582Z,27.12
2018-09-11T08:18:22.420Z,27.07
2018-09-11T08:19:03.219Z,27.06
2018-09-11T08:19:44.023Z,27.04
2018-09-11T08:20:24.779Z,26.95
2018-09-11T08:21:05.514Z,27.03
2018-09-11T08:21:46.219Z,27.07
2018-09-11T08:22:26.924Z,27.02
2018-09-11T08:23:07.735Z,27.04
2018-09-11T08:23:48.468Z,27.07
2018-09-11T08:24:29.224Z,27.07
2018-09-11T08:25:10.029Z,27.09
2018-09-11T08:25:50.819Z,27.04
2018-09-11T08:26:31.635Z,26.99
2018-09-11T08:27:12.375Z,27.04
2018-09-11T08:27:53.146Z,27.09
2018-09-11T08:28:33.892Z,27.03
2018-09-11T08:29:14.768Z,27.07
2018-09-11T08:29:55.521Z,27.04
2018-09-11T08:30:36.350Z,26.95
2018-09-11T08:31:17.083Z,27.03
2018-09-11T08:31:57.819Z,27.03
2018-09-11T08:32:38.660Z,27
2018-09-11T08:33:19.435Z,27.03
2018-09-11T08:34:00.186Z,27.03
2018-09-11T08:34:40.874Z,27.04
2018-09-11T08:35:21.634Z,27.07
2018-09-11T08:36:02.445Z,27.07
2018-09-11T08:36:43.221Z,27.1
2018-09-11T08:37:23.978Z,26.97
2018-09-11T08:38:04.775Z,27.14
2018-09-11T08:38:45.571Z,27.14
2018-09-11T08:39:26.351Z,27.1
2018-09-11T08:40:07.134Z,27.03
2018-09-11T08:40:47.881Z,27.13
2018-09-11T08:41:28.731Z,27.04
2018-09-11T08:42:09.510Z,27.13
2018-09-11T08:42:50.223Z,27.07
2018-09-11T08:43:30.949Z,27.06
2018-09-11T08:44:11.741Z,27.04
2018-09-11T08:44:52.555Z,27.09
2018-09-11T08:45:33.386Z,27.07
2018-09-11T08:46:14.179Z,27.07
2018-09-11T08:46:54.937Z,27.06
2018-09-11T08:47:35.698Z,27.03
2018-09-11T08:48:16.471Z,27.02
2018-09-11T08:48:57.293Z,27.06
2018-09-11T08:49:38.073Z,27.06
2018-09-11T08:50:18.744Z,27.03
2018-09-11T08:50:59.530Z,27.18
2018-09-11T08:51:40.323Z,27.03
2018-09-11T08:52:21.175Z,27.14
2018-09-11T08:53:01.890Z,27.04
2018-09-11T08:53:42.659Z,27.03
2018-09-11T08:54:23.454Z,27.02
2018-09-11T08:55:04.235Z,27.04
2018-09-11T08:55:44.971Z,27.02
2018-09-11T08:56:25.677Z,27.1
2018-09-11T08:57:06.425Z,27.1
2018-09-11T08:57:47.249Z,27.12
2018-09-11T08:58:28.014Z,27.03
2018-09-11T08:59:08.761Z,27.09
2018-09-11T08:59:49.598Z,27.09
2018-09-11T09:00:30.376Z,27.12
2018-09-11T09:01:11.191Z,27.1
2018-09-11T09:01:51.959Z,27.09
2018-09-11T09:02:32.701Z,27.12
2018-09-11T09:03:13.421Z,27.09
2018-09-11T09:03:54.276Z,27.09
2018-09-11T09:04:35.015Z,27.17
2018-09-11T09:05:15.846Z,27.1
2018-09-11T09:05:56.608Z,27.12
2018-09-11T09:06:37.358Z,27.12
2018-09-11T09:07:18.194Z,27.12
2018-09-11T09:07:58.997Z,27.06
2018-09-11T09:08:39.744Z,27.09
2018-09-11T09:09:20.466Z,27.1
2018-09-11T09:10:01.286Z,27.14
2018-09-11T09:10:42.097Z,27.18
2018-09-11T09:11:22.861Z,27.18
2018-09-11T09:12:03.571Z,27.19
2018-09-11T09:12:44.438Z,27.14
2018-09-11T09:13:25.196Z,27.18
2018-09-11T09:14:06.036Z,27.22
2018-09-11T09:14:46.835Z,27.19
2018-09-11T09:15:27.579Z,27.17
2018-09-11T09:16:08.391Z,27.21
2018-09-11T09:16:49.144Z,27.22
2018-09-11T09:17:29.926Z,27.17
2018-09-11T09:18:10.629Z,27.13
2018-09-11T09:18:51.364Z,27.17
2018-09-11T09:19:32.205Z,27.13
2018-09-11T09:20:13.037Z,27.13
2018-09-11T09:20:53.837Z,27.13
2018-09-11T09:21:34.575Z,27.14
2018-09-11T09:22:15.342Z,27.18
2018-09-11T09:22:56.080Z,27.18
2018-09-11T09:23:36.894Z,27.21
2018-09-11T09:24:17.678Z,27.19
2018-09-11T09:24:58.421Z,27.17
2018-09-11T09:25:39.219Z,27.19
2018-09-11T09:26:19.973Z,27.13
2018-09-11T09:27:00.825Z,27.19
2018-09-11T09:27:41.545Z,27.22
2018-09-11T09:28:22.313Z,27.24
2018-09-11T09:29:03.051Z,27.21
2018-09-11T09:29:43.791Z,27.19
2018-09-11T09:30:24.630Z,27.19
2018-09-11T09:31:05.468Z,27.21
2018-09-11T09:31:46.254Z,27.21
2018-09-11T09:32:27.022Z,27.27
2018-09-11T09:33:07.822Z,27.17
2018-09-11T09:33:48.640Z,27.18
2018-09-11T09:34:29.394Z,27.29
2018-09-11T09:35:10.130Z,27.25
2018-09-11T09:35:50.899Z,27.27
2018-09-11T09:36:31.745Z,27.21
2018-09-11T09:37:12.439Z,27.24
2018-09-11T09:37:53.283Z,27.19
2018-09-11T09:38:34.081Z,27.24
2018-09-11T09:39:14.868Z,27.31
2018-09-11T09:39:55.593Z,27.21
2018-09-11T09:40:36.299Z,27.28
2018-09-11T09:41:17.151Z,27.25
2018-09-11T09:41:57.917Z,27.28
2018-09-11T09:42:38.658Z,27.31
2018-09-11T09:43:19.469Z,27.22
2018-09-11T09:44:00.363Z,27.28
2018-09-11T09:44:41.123Z,27.31
2018-09-11T09:45:21.882Z,27.21
2018-09-11T09:46:02.600Z,27.32
2018-09-11T09:46:43.437Z,27.32
2018-09-11T09:47:24.204Z,27.25
2018-09-11T09:48:04.915Z,27.29
2018-09-11T09:48:45.695Z,27.22
2018-09-11T09:49:26.469Z,27.28
2018-09-11T09:50:07.254Z,27.24
2018-09-11T09:50:48.056Z,27.31
2018-09-11T09:51:28.793Z,27.28
2018-09-11T09:52:09.625Z,27.29
2018-09-11T09:52:50.458Z,27.27
2018-09-11T09:53:31.256Z,27.25
2018-09-11T09:54:11.960Z,27.24
2018-09-11T09:54:52.716Z,27.29
2018-09-11T09:55:33.484Z,27.29
2018-09-11T09:56:14.303Z,27.22
2018-09-11T09:56:55.077Z,27.24
2018-09-11T09:57:35.940Z,27.36
2018-09-11T09:58:16.713Z,27.31
2018-09-11T09:58:57.431Z,27.32
2018-09-11T09:59:38.282Z,27.34
2018-09-11T10:00:19.007Z,27.34
2018-09-11T10:00:59.731Z,27.34
2018-09-11T10:01:40.485Z,27.37
2018-09-11T10:02:21.184Z,27.32
2018-09-11T10:03:02.017Z,27.32
2018-09-11T10:03:42.817Z,27.36
2018-09-11T10:04:23.705Z,27.36
2018-09-11T10:05:04.435Z,27.32
2018-09-11T10:05:45.159Z,27.29
2018-09-11T10:06:25.887Z,27.46
2018-09-11T10:07:06.642Z,27.4
2018-09-11T10:07:47.515Z,27.32
2018-09-11T10:08:28.246Z,27.37
2018-09-11T10:09:08.969Z,27.41
2018-09-11T10:09:49.778Z,27.41
2018-09-11T10:10:30.572Z,27.36
2018-09-11T10:11:11.347Z,27.34
2018-09-11T10:11:52.194Z,27.32
2018-09-11T10:12:32.830Z,27.34
2018-09-11T10:13:13.574Z,27.31
2018-09-11T10:13:54.364Z,27.32
2018-09-11T10:14:35.170Z,27.36
2018-09-11T10:15:15.991Z,27.32
2018-09-11T10:15:56.740Z,27.36
2018-09-11T10:16:37.474Z,27.36
2018-09-11T10:17:18.253Z,27.34
2018-09-11T10:17:59.052Z,27.34
2018-09-11T10:18:39.769Z,27.39
2018-09-11T10:19:20.519Z,27.44
2018-09-11T10:20:01.292Z,27.37
2018-09-11T10:20:42.069Z,27.4
2018-09-11T10:21:22.830Z,27.44
2018-09-11T10:22:03.595Z,27.54
2018-09-11T10:22:44.396Z,27.39
2018-09-11T10:23:25.242Z,27.41
2018-09-11T10:24:06.104Z,27.39
2018-09-11T10:24:46.829Z,27.43
2018-09-11T10:25:27.604Z,27.39
2018-09-11T10:26:08.466Z,27.39
2018-09-11T10:26:49.167Z,27.43
2018-09-11T10:27:29.904Z,27.37
2018-09-11T10:28:10.611Z,27.49
2018-09-11T10:28:51.390Z,27.44
2018-09-11T10:29:32.205Z,27.41
2018-09-11T10:30:12.979Z,27.47
2018-09-11T10:30:53.752Z,27.47
2018-09-11T10:31:34.474Z,27.47
2018-09-11T10:32:15.234Z,27.46
2018-09-11T10:32:55.963Z,27.55
2018-09-11T10:33:36.880Z,27.46
2018-09-11T10:34:17.654Z,27.55
2018-09-11T10:34:58.358Z,27.55
2018-09-11T10:35:39.141Z,27.47
2018-09-11T10:36:19.934Z,27.49
2018-09-11T10:37:00.763Z,27.54
2018-09-11T10:37:41.553Z,27.51
2018-09-11T10:38:22.237Z,27.5
2018-09-11T10:39:02.976Z,27.57
2018-09-11T10:39:43.726Z,27.55
2018-09-11T10:40:24.576Z,27.59
2018-09-11T10:41:05.366Z,27.5
2018-09-11T10:41:46.188Z,27.51
2018-09-11T10:42:26.879Z,27.51
2018-09-11T10:43:07.703Z,27.54
2018-09-11T10:43:48.499Z,27.57
2018-09-11T10:44:29.253Z,27.51
2018-09-11T10:45:09.991Z,27.5
2018-09-11T10:45:50.737Z,27.57
2018-09-11T10:46:31.520Z,27.51
2018-09-11T10:47:12.386Z,27.55
2018-09-11T10:47:53.196Z,27.5
2018-09-11T10:48:33.988Z,27.51
2018-09-11T10:49:14.763Z,27.51
2018-09-11T10:49:55.552Z,27.54
2018-09-11T10:50:36.331Z,27.59
2018-09-11T10:51:17.149Z,27.55
2018-09-11T10:51:58.031Z,27.59
2018-09-11T10:52:38.638Z,27.63
2018-09-11T10:53:19.486Z,27.57
2018-09-11T10:54:00.288Z,27.6
2018-09-11T10:54:41.117Z,27.59
2018-09-11T10:55:21.804Z,27.63
2018-09-11T10:56:02.605Z,27.66
2018-09-11T10:56:43.473Z,27.65
2018-09-11T10:57:24.234Z,27.63
2018-09-11T10:58:04.993Z,27.63
2018-09-11T10:58:45.688Z,27.67
2018-09-11T10:59:26.486Z,27.66
2018-09-11T11:00:07.282Z,27.62
2018-09-11T11:00:48.018Z,27.6
2018-09-11T11:01:28.797Z,27.67
2018-09-11T11:02:09.703Z,27.65
2018-09-11T11:02:50.520Z,27.66
2018-09-11T11:03:31.317Z,27.63
2018-09-11T11:04:12.077Z,27.74
2018-09-11T11:04:52.838Z,27.74
2018-09-11T11:05:33.600Z,27.79
2018-09-11T11:06:14.445Z,27.69
2018-09-11T11:06:55.233Z,27.7
2018-09-11T11:07:36.050Z,27.78
2018-09-11T11:08:16.824Z,27.72
2018-09-11T11:08:57.564Z,27.74
2018-09-11T11:09:38.427Z,27.78
2018-09-11T11:10:19.189Z,27.74
2018-09-11T11:10:59.934Z,27.85
2018-09-11T11:11:40.693Z,27.81
2018-09-11T11:12:21.471Z,27.72
2018-09-11T11:13:02.304Z,27.79
2018-09-11T11:13:43.002Z,27.74
2018-09-11T11:14:23.740Z,27.78
2018-09-11T11:15:04.543Z,27.81
2018-09-11T11:15:45.361Z,27.81
2018-09-11T11:16:26.151Z,27.77
2018-09-11T11:17:07.003Z,27.85
2018-09-11T11:17:47.645Z,27.88
2018-09-11T11:18:28.472Z,27.85
2018-09-11T11:19:09.158Z,27.78
2018-09-11T11:19:49.892Z,27.85
2018-09-11T11:20:30.632Z,27.82
2018-09-11T11:21:11.442Z,27.81
2018-09-11T11:21:52.268Z,27.85
2018-09-11T11:22:33.116Z,27.85
2018-09-11T11:23:13.874Z,27.92
2018-09-11T11:23:54.622Z,27.84
2018-09-11T11:24:35.371Z,27.85
2018-09-11T11:25:16.112Z,27.9
2018-09-11T11:25:56.948Z,27.92
2018-09-11T11:26:37.687Z,27.82
2018-09-11T11:27:18.565Z,27.87
2018-09-11T11:27:59.426Z,27.82
2018-09-11T11:28:40.167Z,27.87
2018-09-11T11:29:21.018Z,27.92
2018-09-11T11:30:01.733Z,27.85
2018-09-11T11:30:42.464Z,27.93
2018-09-11T11:31:23.294Z,27.88
2018-09-11T11:32:04.040Z,27.94
2018-09-11T11:32:44.792Z,27.9
2018-09-11T11:33:25.536Z,27.88
2018-09-11T11:34:06.332Z,27.96
2018-09-11T11:34:47.158Z,27.96
2018-09-11T11:35:27.930Z,27.94
2018-09-11T11:36:08.771Z,27.99
2018-09-11T11:36:49.665Z,27.97
2018-09-11T11:37:30.326Z,27.97
2018-09-11T11:38:11.070Z,27.97
2018-09-11T11:38:51.852Z,27.97
2018-09-11T11:39:32.565Z,27.93
2018-09-11T11:40:13.358Z,27.96
2018-09-11T11:40:54.192Z,27.99
2018-09-11T11:41:35.047Z,27.92
2018-09-11T11:42:15.938Z,27.96
2018-09-11T11:42:56.624Z,27.92
2018-09-11T11:43:37.452Z,27.92
2018-09-11T11:44:18.314Z,27.97
2018-09-11T11:44:59.040Z,28.02
2018-09-11T11:45:39.798Z,28.07
2018-09-11T11:46:20.559Z,28.03
2018-09-11T11:47:01.310Z,28.03
2018-09-11T11:47:42.204Z,28.02
2018-09-11T11:48:23.070Z,27.92
2018-09-11T11:49:03.797Z,27.94
2018-09-11T11:49:44.536Z,27.93
2018-09-11T11:50:25.276Z,27.92
2018-09-11T11:51:06.054Z,27.94
2018-09-11T11:51:46.900Z,27.96
2018-09-11T11:52:27.675Z,27.9
2018-09-11T11:53:08.408Z,27.87
2018-09-11T11:53:49.172Z,27.99
2018-09-11T11:54:29.966Z,27.94
2018-09-11T11:55:10.935Z,27.99
2018-09-11T11:55:51.515Z,27.93
2018-09-11T11:56:32.259Z,28
2018-09-11T11:57:13.012Z,27.99
2018-09-11T11:57:53.838Z,28.11
2018-09-11T11:58:34.631Z,28.11
2018-09-11T11:59:15.412Z,28.03
2018-09-11T11:59:56.212Z,28.02
2018-09-11T12:00:36.917Z,28.04
2018-09-11T12:01:17.691Z,28.03
2018-09-11T12:01:58.502Z,28.03
2018-09-11T12:02:39.196Z,28.03
2018-09-11T12:03:19.946Z,28.06
2018-09-11T12:04:00.702Z,28.04
2018-09-11T12:04:41.541Z,28.02
2018-09-11T12:05:22.379Z,28.04
2018-09-11T12:06:03.151Z,28
2018-09-11T12:06:43.939Z,28.02
2018-09-11T12:07:24.742Z,28.02
2018-09-11T12:08:05.552Z,28.14
2018-09-11T12:08:46.314Z,28.09
2018-09-11T12:09:27.034Z,28.11
2018-09-11T12:10:07.815Z,28.07
2018-09-11T12:10:48.653Z,28.11
2018-09-11T12:11:29.449Z,28.07
2018-09-11T12:12:10.169Z,28.12
2018-09-11T12:12:50.937Z,28.04
2018-09-11T12:13:31.799Z,28.03
2018-09-11T12:14:12.601Z,28.03
2018-09-11T12:14:53.476Z,28.06
2018-09-11T12:15:34.211Z,28.09
2018-09-11T12:16:14.962Z,28.06
2018-09-11T12:16:55.751Z,28.06
2018-09-11T12:17:36.481Z,28.09
2018-09-11T12:18:17.278Z,28.09
2018-09-11T12:18:58.003Z,28.12
2018-09-11T12:19:38.756Z,28.11
2018-09-11T12:20:19.593Z,28.12
2018-09-11T12:21:00.384Z,28.14
2018-09-11T12:21:41.164Z,28.09
2018-09-11T12:22:21.904Z,28.17
2018-09-11T12:23:02.703Z,28.02
2018-09-11T12:23:43.486Z,28.11
2018-09-11T12:24:24.242Z,28.12
2018-09-11T12:25:04.986Z,28.09
2018-09-11T12:25:45.733Z,28.12
2018-09-11T12:26:26.610Z,28.09
2018-09-11T12:27:07.385Z,28.11
2018-09-11T12:27:48.127Z,28.04
2018-09-11T12:28:28.874Z,28.11
2018-09-11T12:29:09.676Z,28.12
2018-09-11T12:29:50.482Z,28.07
2018-09-11T12:30:31.244Z,28.12
2018-09-11T12:31:12.022Z,28.11
2018-09-11T12:31:52.760Z,28.14
2018-09-11T12:32:33.619Z,28.15
2018-09-11T12:33:14.504Z,28.14
2018-09-11T12:33:55.408Z,28.11
2018-09-11T12:34:36.238Z,28.17
2018-09-11T12:35:16.969Z,28.19
2018-09-11T12:35:57.701Z,28.21
2018-09-11T12:36:38.533Z,28.24
2018-09-11T12:37:19.285Z,28.21
2018-09-11T12:38:00.064Z,28.25
2018-09-11T12:38:40.822Z,28.22
2018-09-11T12:39:21.660Z,28.24
2018-09-11T12:40:02.424Z,28.3
2018-09-11T12:40:43.123Z,28.25
2018-09-11T12:41:23.894Z,28.24
2018-09-11T12:42:04.714Z,28.19
2018-09-11T12:42:45.525Z,28.21
2018-09-11T12:43:26.307Z,28.18
2018-09-11T12:44:06.989Z,28.22
2018-09-11T12:44:47.838Z,28.25
2018-09-11T12:45:28.643Z,28.21
2018-09-11T12:46:09.578Z,28.19
2018-09-11T12:46:50.220Z,28.21
2018-09-11T12:47:31.024Z,28.19
2018-09-11T12:48:12.084Z,28.25
2018-09-11T12:48:52.578Z,28.27
2018-09-11T12:49:33.245Z,28.24
2018-09-11T12:50:14.000Z,28.25
2018-09-11T12:50:54.739Z,28.27
2018-09-11T12:51:35.485Z,28.18
2018-09-11T12:52:16.232Z,28.36
2018-09-11T12:52:57.013Z,28.27
2018-09-11T12:53:37.725Z,28.29
2018-09-11T12:54:18.461Z,28.22
2018-09-11T12:54:59.279Z,28.25
2018-09-11T12:55:40.155Z,28.25
2018-09-11T12:56:20.936Z,28.3
2018-09-11T12:57:01.643Z,28.25
2018-09-11T12:57:42.388Z,28.27
2018-09-11T12:58:23.140Z,28.31
2018-09-11T12:59:03.916Z,28.33
2018-09-11T12:59:44.701Z,28.24
2018-09-11T13:00:25.543Z,28.18
2018-09-11T13:01:06.280Z,28.22
2018-09-11T13:01:47.002Z,28.25
2018-09-11T13:02:27.850Z,28.29
2018-09-11T13:03:08.569Z,28.25
2018-09-11T13:03:49.331Z,28.31
2018-09-11T13:04:30.076Z,28.24
2018-09-11T13:05:10.826Z,28.31
2018-09-11T13:05:51.823Z,28.3
2018-09-11T13:06:32.656Z,28.33
2018-09-11T13:07:13.480Z,28.31
2018-09-11T13:07:54.234Z,28.19
2018-09-11T13:08:35.052Z,28.24
2018-09-11T13:09:16.000Z,28.18
2018-09-11T13:09:56.595Z,28.21
2018-09-11T13:10:37.329Z,28.24
2018-09-11T13:11:18.057Z,28.22
2018-09-11T13:11:58.917Z,28.19
2018-09-11T13:12:39.808Z,28.24
2018-09-11T13:13:20.653Z,28.21
2018-09-11T13:14:01.383Z,28.21
2018-09-11T13:14:42.091Z,28.21
2018-09-11T13:15:22.874Z,28.22
2018-09-11T13:16:03.668Z,28.21
2018-09-11T13:16:44.414Z,28.24
2018-09-11T13:17:25.143Z,28.21
2018-09-11T13:18:05.897Z,28.24
2018-09-11T13:18:46.765Z,28.24
2018-09-11T13:19:27.531Z,28.22
2018-09-11T13:20:08.271Z,28.21
2018-09-11T13:20:49.087Z,28.21
2018-09-11T13:21:29.862Z,28.25
2018-09-11T13:22:10.773Z,28.24
2018-09-11T13:22:51.542Z,28.25
2018-09-11T13:23:32.314Z,28.21
2018-09-11T13:24:13.060Z,28.27
2018-09-11T13:24:53.873Z,28.3
2018-09-11T13:25:34.727Z,28.3
2018-09-11T13:26:15.609Z,28.27
2018-09-11T13:26:56.387Z,28.34
2018-09-11T13:27:37.181Z,28.22
2018-09-11T13:28:18.007Z,28.24
2018-09-11T13:28:58.794Z,28.24
2018-09-11T13:29:39.536Z,28.19
2018-09-11T13:30:20.243Z,28.24
2018-09-11T13:31:00.957Z,28.21
2018-09-11T13:31:41.734Z,28.19
2018-09-11T13:32:22.524Z,28.19
2018-09-11T13:33:03.280Z,28.12
2018-09-11T13:33:44.122Z,28.17
2018-09-11T13:34:24.895Z,28.17
2018-09-11T13:35:05.745Z,28.17
2018-09-11T13:35:46.472Z,28.21
2018-09-11T13:36:27.251Z,28.19
2018-09-11T13:37:08.074Z,28.14
2018-09-11T13:37:48.850Z,28.12
2018-09-11T13:38:29.602Z,28.15
2018-09-11T13:39:10.356Z,28.11
2018-09-11T13:39:51.143Z,28.18
2018-09-11T13:40:32.007Z,28.19
2018-09-11T13:41:12.871Z,28.22
2018-09-11T13:41:53.621Z,28.24
2018-09-11T13:42:34.397Z,28.22
2018-09-11T13:43:15.146Z,28.21
2018-09-11T13:43:55.906Z,28.18
2018-09-11T13:44:36.675Z,28.25
2018-09-11T13:45:17.475Z,28.19
2018-09-11T13:45:58.237Z,28.24
2018-09-11T13:46:39.051Z,28.25
2018-09-11T13:47:19.960Z,28.25
2018-09-11T13:48:00.640Z,28.25
2018-09-11T13:48:41.398Z,28.24
2018-09-11T13:49:22.172Z,28.21
2018-09-11T13:50:03.014Z,28.29
2018-09-11T13:50:43.808Z,28.29
2018-09-11T13:51:24.569Z,28.33
2018-09-11T13:52:05.341Z,28.27
2018-09-11T13:52:46.104Z,28.24
2018-09-11T13:53:26.914Z,28.3
2018-09-11T13:54:07.707Z,28.29
2018-09-11T13:54:48.478Z,28.31
2018-09-11T13:55:29.294Z,28.34
2018-09-11T13:56:10.150Z,28.37
2018-09-11T13:56:50.968Z,28.36
2018-09-11T13:57:31.728Z,28.29
2018-09-11T13:58:12.450Z,28.39
2018-09-11T13:58:53.181Z,28.29
2018-09-11T13:59:33.966Z,28.29
2018-09-11T14:00:14.755Z,28.27
2018-09-11T14:00:55.639Z,28.33
2018-09-11T14:01:36.427Z,28.34
2018-09-11T14:02:17.144Z,28.3
2018-09-11T14:02:57.926Z,28.25
2018-09-11T14:03:38.680Z,28.29
2018-09-11T14:04:19.413Z,28.3
2018-09-11T14:05:00.196Z,28.3
2018-09-11T14:05:41.010Z,28.36
2018-09-11T14:06:21.822Z,28.3
2018-09-11T14:07:02.653Z,28.27
2018-09-11T14:07:43.475Z,28.25
2018-09-11T14:08:24.292Z,28.25
2018-09-11T14:09:05.001Z,28.25
2018-09-11T14:09:45.731Z,28.27
2018-09-11T14:10:26.471Z,28.24
2018-09-11T14:11:07.305Z,28.3
2018-09-11T14:11:48.116Z,28.21
2018-09-11T14:12:28.844Z,28.24
2018-09-11T14:13:09.660Z,28.21
2018-09-11T14:13:50.526Z,28.24
2018-09-11T14:14:31.303Z,28.24
2018-09-11T14:15:12.065Z,28.22
2018-09-11T14:15:52.844Z,28.17
2018-09-11T14:16:33.496Z,28.18
2018-09-11T14:17:14.342Z,28.21
2018-09-11T14:17:55.149Z,28.22
2018-09-11T14:18:35.956Z,28.19
2018-09-11T14:19:16.757Z,28.18
2018-09-11T14:19:57.488Z,28.24
2018-09-11T14:20:38.360Z,28.24
2018-09-11T14:21:19.227Z,28.25
2018-09-11T14:21:59.907Z,28.21
2018-09-11T14:22:40.613Z,28.21
2018-09-11T14:23:21.362Z,28.21
2018-09-11T14:24:02.230Z,28.24
2018-09-11T14:24:42.993Z,28.29
2018-09-11T14:25:23.732Z,28.33
2018-09-11T14:26:04.508Z,28.21
2018-09-11T14:26:45.328Z,28.22
2018-09-11T14:27:26.136Z,28.22
2018-09-11T14:28:06.889Z,28.18
2018-09-11T14:28:47.637Z,28.24
2018-09-11T14:29:28.443Z,28.22
2018-09-11T14:30:09.244Z,28.22
2018-09-11T14:30:49.974Z,28.15
2018-09-11T14:31:30.710Z,28.18
2018-09-11T14:32:11.452Z,28.24
2018-09-11T14:32:52.275Z,28.15
2018-09-11T14:33:33.095Z,28.14
2018-09-11T14:34:13.898Z,28.22
2018-09-11T14:34:54.646Z,28.21
2018-09-11T14:35:35.367Z,28.21
2018-09-11T14:36:16.098Z,28.27
2018-09-11T14:36:56.900Z,28.21
2018-09-11T14:37:37.737Z,28.22
2018-09-11T14:38:18.468Z,28.21
2018-09-11T14:38:59.263Z,28.17
2018-09-11T14:39:40.143Z,28.19
2018-09-11T14:40:20.969Z,28.21
2018-09-11T14:41:01.749Z,28.15
2018-09-11T14:41:42.469Z,28.09
2018-09-11T14:42:23.235Z,28.17
2018-09-11T14:43:03.975Z,28.21
2018-09-11T14:43:44.790Z,28.15
2018-09-11T14:44:25.623Z,28.19
2018-09-11T14:45:06.446Z,28.11
2018-09-11T14:45:47.178Z,28.14
2018-09-11T14:46:27.967Z,28.17
2018-09-11T14:47:08.771Z,28.17
2018-09-11T14:47:49.524Z,28.07
2018-09-11T14:48:30.258Z,28.15
2018-09-11T14:49:10.986Z,28.18
2018-09-11T14:49:51.759Z,28.12
2018-09-11T14:50:32.573Z,28.14
2018-09-11T14:51:13.433Z,28.02
2018-09-11T14:51:54.201Z,28.06
2018-09-11T14:52:35.072Z,28
2018-09-11T14:53:15.765Z,28
2018-09-11T14:53:56.536Z,28.04
2018-09-11T14:54:37.407Z,28.03
2018-09-11T14:55:18.230Z,27.96
2018-09-11T14:55:58.977Z,27.94
2018-09-11T14:56:39.792Z,27.94
2018-09-11T14:57:20.673Z,27.92
2018-09-11T14:58:01.433Z,27.99
2018-09-11T14:58:42.201Z,27.97
2018-09-11T14:59:22.932Z,27.92
2018-09-11T15:00:03.751Z,27.99
2018-09-11T15:00:44.525Z,27.94
2018-09-11T15:01:25.265Z,27.96
2018-09-11T15:02:06.073Z,27.93
2018-09-11T15:02:46.829Z,27.9
2018-09-11T15:03:27.628Z,27.97
2018-09-11T15:04:08.430Z,27.87
2018-09-11T15:04:49.133Z,27.87
2018-09-11T15:05:29.934Z,27.93
2018-09-11T15:06:10.765Z,27.93
2018-09-11T15:06:51.599Z,27.92
2018-09-11T15:07:32.329Z,27.85
2018-09-11T15:08:13.072Z,27.93
2018-09-11T15:08:53.849Z,27.93
2018-09-11T15:09:34.652Z,27.87
2018-09-11T15:10:15.518Z,27.81
2018-09-11T15:10:56.300Z,27.87
2018-09-11T15:11:37.137Z,27.85
2018-09-11T15:12:17.907Z,27.87
2018-09-11T15:12:58.734Z,27.9
2018-09-11T15:13:39.550Z,27.87
2018-09-11T15:14:20.332Z,27.84
2018-09-11T15:15:01.050Z,27.85
2018-09-11T15:15:41.850Z,27.82
2018-09-11T15:16:22.670Z,27.88
2018-09-11T15:17:03.572Z,27.81
2018-09-11T15:17:44.417Z,27.82
2018-09-11T15:18:25.159Z,27.81
2018-09-11T15:19:05.907Z,27.85
2018-09-11T15:19:46.681Z,27.82
2018-09-11T15:20:27.488Z,27.82
2018-09-11T15:21:08.316Z,27.82
2018-09-11T15:21:49.034Z,27.72
2018-09-11T15:22:30.243Z,27.72
2018-09-11T15:23:11.352Z,27.77
2018-09-11T15:23:52.135Z,27.7
2018-09-11T15:24:33.033Z,27.72
2018-09-11T15:25:13.798Z,27.77
2018-09-11T15:25:54.498Z,27.77
2018-09-11T15:26:35.253Z,27.77
2018-09-11T15:27:16.084Z,27.7
2018-09-11T15:27:56.933Z,27.63
2018-09-11T15:28:37.744Z,27.5
2018-09-11T15:29:18.429Z,27.55
2018-09-11T15:29:59.284Z,27.65
2018-09-11T15:30:40.053Z,27.57
2018-09-11T15:31:20.842Z,27.65
2018-09-11T15:32:01.635Z,27.62
2018-09-11T15:32:42.411Z,27.5
2018-09-11T15:33:23.212Z,27.63
2018-09-11T15:34:04.017Z,27.66
2018-09-11T15:34:44.734Z,27.67
2018-09-11T15:35:25.473Z,27.63
2018-09-11T15:36:06.345Z,27.62
2018-09-11T15:36:47.122Z,27.59
2018-09-11T15:37:27.908Z,27.5
2018-09-11T15:38:08.693Z,27.51
2018-09-11T15:38:49.425Z,27.51
2018-09-11T15:39:30.312Z,27.65
2018-09-11T15:40:11.113Z,27.54
2018-09-11T15:40:51.891Z,27.55
2018-09-11T15:41:32.612Z,27.5